createdAt,value
2019-05-16T00:02:08.212Z,7.75
2019-05-16T00:04:42.271Z,9.13
2019-05-16T00:07:18.944Z,10.03
2019-05-16T00:09:51.749Z,8.13
2019-05-16T00:12:25.720Z,13.15
2019-05-16T00:17:32.836Z,12.73
2019-05-16T00:20:09.260Z,9.53
2019-05-16T00:22:43.903Z,8.13
2019-05-16T00:25:18.111Z,9.85
2019-05-16T00:27:52.018Z,8.58
2019-05-16T00:30:28.496Z,10.15
2019-05-16T00:33:01.377Z,9.53
2019-05-16T00:35:35.219Z,10.43
2019-05-16T00:38:09.083Z,8.18
2019-05-16T00:40:43.917Z,12.05
2019-05-16T00:43:18.384Z,9.28
2019-05-16T00:45:53.583Z,17.27
2019-05-16T00:48:28.855Z,6.83
2019-05-16T00:51:03.111Z,8.05
2019-05-16T00:58:48.437Z,8.00
2019-05-16T01:01:22.473Z,8.60
2019-05-16T01:03:58.610Z,7.03
2019-05-16T01:06:32.225Z,8.93
2019-05-16T01:09:08.604Z,10.43
2019-05-16T01:11:42.666Z,9.83
2019-05-16T01:14:17.728Z,6.47
2019-05-16T01:16:51.613Z,8.60
2019-05-16T01:19:27.793Z,8.10
2019-05-16T01:22:02.037Z,9.25
2019-05-16T01:27:09.060Z,10.68
2019-05-16T01:29:43.178Z,8.08
2019-05-16T01:37:24.976Z,6.50
2019-05-16T01:42:32.759Z,10.83
2019-05-16T01:45:08.439Z,7.42
2019-05-16T01:47:42.385Z,6.60
2019-05-16T01:50:18.138Z,7.67
2019-05-16T01:52:52.318Z,8.88
2019-05-16T01:55:26.089Z,12.73
2019-05-16T01:57:59.924Z,8.35
2019-05-16T02:00:37.735Z,5.25
2019-05-16T02:03:09.895Z,8.88
2019-05-16T02:08:18.280Z,6.53
2019-05-16T02:10:52.216Z,8.68
2019-05-16T02:13:28.392Z,10.30
2019-05-16T02:16:01.871Z,10.82
2019-05-16T02:21:08.885Z,12.50
2019-05-16T02:23:42.867Z,8.00
2019-05-16T02:28:50.960Z,8.08
2019-05-16T02:31:25.436Z,9.88
2019-05-16T02:34:01.206Z,9.90
2019-05-16T02:36:35.149Z,10.95
2019-05-16T02:41:46.126Z,11.28
2019-05-16T02:44:20.816Z,9.63
2019-05-16T02:46:55.627Z,8.83
2019-05-16T02:49:30.698Z,9.23
2019-05-16T02:52:05.118Z,6.90
2019-05-16T02:54:41.209Z,7.58
2019-05-16T02:57:14.822Z,8.63
2019-05-16T03:02:23.648Z,12.93
2019-05-16T03:07:41.111Z,7.55
2019-05-16T03:10:10.905Z,9.83
2019-05-16T03:12:44.324Z,8.43
2019-05-16T03:15:21.525Z,7.67
2019-05-16T03:17:58.794Z,10.72
2019-05-16T03:20:33.855Z,8.33
2019-05-16T03:23:11.014Z,23.27
2019-05-16T03:25:43.302Z,12.05
2019-05-16T03:28:17.121Z,14.15
2019-05-16T03:30:54.441Z,13.18
2019-05-16T03:33:35.174Z,8.58
2019-05-16T03:36:04.610Z,8.53
2019-05-16T03:38:41.084Z,10.20
2019-05-16T03:41:13.587Z,6.58
2019-05-16T03:43:50.513Z,10.13
2019-05-16T03:46:23.130Z,10.38
2019-05-16T03:48:57.069Z,9.78
2019-05-16T03:51:31.116Z,7.22
2019-05-16T03:56:40.578Z,7.55
2019-05-16T03:59:13.609Z,8.00
2019-05-16T04:01:47.556Z,10.58
2019-05-16T04:04:21.527Z,10.75
2019-05-16T04:06:55.415Z,6.67
2019-05-16T04:09:31.547Z,8.58
2019-05-16T04:12:04.834Z,7.87
2019-05-16T04:14:40.881Z,7.20
2019-05-16T04:17:14.175Z,9.25
2019-05-16T04:19:50.678Z,6.87
2019-05-16T04:22:23.745Z,10.48
2019-05-16T04:27:31.110Z,7.95
2019-05-16T04:30:07.299Z,10.68
2019-05-16T04:32:42.122Z,11.15
2019-05-16T04:35:16.468Z,10.28
2019-05-16T04:37:51.327Z,10.60
2019-05-16T04:40:25.408Z,7.72
2019-05-16T04:43:01.189Z,10.43
2019-05-16T04:45:34.779Z,9.23
2019-05-16T04:48:11.242Z,7.67
2019-05-16T04:50:44.225Z,9.30
2019-05-16T04:53:20.639Z,8.05
2019-05-16T04:55:53.599Z,10.05
2019-05-16T04:58:27.582Z,8.30
2019-05-16T05:01:01.947Z,9.03
2019-05-16T05:03:35.914Z,11.80
2019-05-16T05:06:11.325Z,11.48
2019-05-16T05:08:54.021Z,8.38
2019-05-16T05:11:21.668Z,9.40
2019-05-16T05:13:55.766Z,8.20
2019-05-16T05:16:30.631Z,6.37
2019-05-16T05:19:04.979Z,8.13
2019-05-16T05:21:40.924Z,7.85
2019-05-16T05:24:14.468Z,7.65
2019-05-16T05:26:50.366Z,9.38
2019-05-16T05:29:23.973Z,9.55
2019-05-16T05:32:03.564Z,8.38
2019-05-16T05:34:33.578Z,7.08
2019-05-16T05:37:07.426Z,7.05
2019-05-16T05:39:42.701Z,8.78
2019-05-16T05:42:16.750Z,9.98
2019-05-16T05:47:24.912Z,7.90
2019-05-16T05:50:00.650Z,8.78
2019-05-16T05:52:34.325Z,6.53
2019-05-16T05:55:10.531Z,7.35
2019-05-16T05:57:44.047Z,6.42
2019-05-16T06:00:21.058Z,8.53
2019-05-16T06:02:54.197Z,8.45
2019-05-16T06:05:30.420Z,7.37
2019-05-16T06:08:03.580Z,7.15
2019-05-16T06:10:37.457Z,10.05
2019-05-16T06:13:11.266Z,7.53
2019-05-16T06:15:45.129Z,6.33
2019-05-16T06:18:19.831Z,9.98
2019-05-16T06:20:54.094Z,8.68
2019-05-16T06:23:30.814Z,4.12
2019-05-16T06:26:03.551Z,6.20
2019-05-16T06:28:37.505Z,7.10
2019-05-16T06:31:14.017Z,8.70
2019-05-16T06:33:47.065Z,7.62
2019-05-16T06:36:21.739Z,6.75
2019-05-16T06:38:55.556Z,9.83
2019-05-16T06:41:30.407Z,8.63
2019-05-16T06:44:04.526Z,7.05
2019-05-16T06:46:54.031Z,7.80
2019-05-16T06:49:14.154Z,5.80
2019-05-16T06:51:48.146Z,8.78
2019-05-16T06:54:22.123Z,9.68
2019-05-16T06:56:55.984Z,8.28
2019-05-16T06:59:29.885Z,7.37
2019-05-16T07:02:03.903Z,4.87
2019-05-16T07:07:12.671Z,9.10
2019-05-16T07:09:58.078Z,6.75
2019-05-16T07:12:22.259Z,7.95
2019-05-16T07:17:30.679Z,5.17
2019-05-16T07:20:06.716Z,5.80
2019-05-16T07:22:40.841Z,6.80
2019-05-16T07:25:15.117Z,4.72
2019-05-16T07:27:50.965Z,4.05
2019-05-16T07:30:24.705Z,6.03
2019-05-16T07:35:33.469Z,9.23
2019-05-16T07:40:40.657Z,8.50
2019-05-16T07:45:47.605Z,6.47
2019-05-16T07:50:56.161Z,6.70
2019-05-16T07:56:05.143Z,6.40
2019-05-16T08:01:12.989Z,8.48
2019-05-16T08:03:47.024Z,5.53
2019-05-16T08:08:54.396Z,7.25
2019-05-16T08:11:30.383Z,5.83
2019-05-16T08:14:03.819Z,6.12
2019-05-16T08:19:10.974Z,7.03
2019-05-16T08:21:44.804Z,5.65
2019-05-16T08:26:53.438Z,8.15
2019-05-16T08:29:27.664Z,5.28
2019-05-16T08:32:02.283Z,6.45
2019-05-16T08:34:36.364Z,6.12
2019-05-16T08:37:32.760Z,7.58
2019-05-16T08:39:45.937Z,5.25
2019-05-16T08:42:20.769Z,6.70
2019-05-16T08:44:54.911Z,4.40
2019-05-16T08:47:32.144Z,5.37
2019-05-16T08:52:44.748Z,6.22
2019-05-16T08:55:21.752Z,5.30
2019-05-16T08:57:54.693Z,6.58
2019-05-16T09:00:33.137Z,7.90
2019-05-16T09:03:04.656Z,6.00
2019-05-16T09:05:42.645Z,5.37
2019-05-16T09:08:14.144Z,5.95
2019-05-16T09:10:34.456Z,9.33
2019-05-16T09:10:59.734Z,6.05
2019-05-16T09:13:23.478Z,5.20
2019-05-16T09:18:40.678Z,7.25
2019-05-16T09:21:07.434Z,6.42
2019-05-16T09:23:41.718Z,7.53
2019-05-16T09:26:19.280Z,5.12
2019-05-16T09:28:51.679Z,9.13
2019-05-16T09:31:27.668Z,8.83
2019-05-16T09:34:02.142Z,6.55
2019-05-16T09:41:50.965Z,6.62
2019-05-16T09:44:20.095Z,7.35
2019-05-16T09:46:56.839Z,7.12
2019-05-16T09:49:29.712Z,8.60
2019-05-16T09:52:03.847Z,7.65
2019-05-16T09:54:38.158Z,5.58
2019-05-16T09:57:12.012Z,8.05
2019-05-16T09:59:46.574Z,6.15
2019-05-16T10:02:20.697Z,5.65
2019-05-16T10:07:29.150Z,8.58
2019-05-16T10:10:03.168Z,4.87
2019-05-16T10:15:12.870Z,10.72
2019-05-16T10:17:47.613Z,10.43
2019-05-16T10:20:21.878Z,8.50
2019-05-16T10:22:57.951Z,7.50
2019-05-16T10:25:31.401Z,10.13
2019-05-16T10:28:05.375Z,7.03
2019-05-16T10:33:12.514Z,9.45
2019-05-16T10:35:48.008Z,10.38
2019-05-16T10:38:22.060Z,9.18
2019-05-16T10:40:56.609Z,7.40
2019-05-16T10:43:30.542Z,6.97
2019-05-16T10:46:06.510Z,11.45
2019-05-16T10:48:40.006Z,8.00
2019-05-16T10:51:13.922Z,10.85
2019-05-16T10:54:13.125Z,11.22
2019-05-16T10:56:23.547Z,9.65
2019-05-16T10:59:28.485Z,12.80
2019-05-16T11:01:33.137Z,9.93
2019-05-16T11:04:07.604Z,8.70
2019-05-16T11:06:41.601Z,14.63
2019-05-16T11:09:17.343Z,10.32
2019-05-16T11:11:51.000Z,9.68
2019-05-16T11:14:27.980Z,10.28
2019-05-16T11:17:00.379Z,14.85
2019-05-16T11:19:34.260Z,16.62
2019-05-16T11:22:08.131Z,15.10
2019-05-16T11:24:42.156Z,10.32
2019-05-16T11:29:49.148Z,10.55
2019-05-16T11:32:23.038Z,10.72
2019-05-16T11:34:57.048Z,12.65
2019-05-16T11:37:30.856Z,13.15
2019-05-16T11:40:09.278Z,14.60
2019-05-16T11:42:43.186Z,17.27
2019-05-16T11:45:17.352Z,11.08
2019-05-16T11:47:51.308Z,16.17
2019-05-16T11:50:27.846Z,12.18
2019-05-16T11:52:59.749Z,11.30
2019-05-16T11:55:35.061Z,15.95
2019-05-16T11:58:07.047Z,16.65
2019-05-16T12:00:39.936Z,16.27
2019-05-16T12:03:12.657Z,18.07
2019-05-16T12:05:48.205Z,14.63
2019-05-16T12:08:21.387Z,12.53
2019-05-16T12:10:54.206Z,12.33
2019-05-16T12:13:32.383Z,14.13
2019-05-16T12:16:02.758Z,13.85
2019-05-16T12:21:09.161Z,14.05
2019-05-16T12:23:42.001Z,15.90
2019-05-16T12:26:17.288Z,20.27
2019-05-16T12:28:49.190Z,11.25
2019-05-16T12:31:22.057Z,14.80
2019-05-16T12:33:59.355Z,11.60
2019-05-16T12:36:31.415Z,15.00
2019-05-16T12:39:07.766Z,18.12
2019-05-16T12:41:41.339Z,12.45
2019-05-16T12:44:16.103Z,15.35
2019-05-16T12:46:48.863Z,16.30
2019-05-16T12:49:21.605Z,18.17
2019-05-16T12:51:56.934Z,18.52
2019-05-16T12:54:29.114Z,16.80
2019-05-16T12:57:01.978Z,16.62
2019-05-16T12:59:36.752Z,15.88
2019-05-16T13:02:09.509Z,19.07
2019-05-16T13:04:42.346Z,16.35
2019-05-16T13:07:17.239Z,21.27
2019-05-16T13:09:50.182Z,20.92
2019-05-16T13:12:23.231Z,18.15
2019-05-16T13:14:55.973Z,17.05
2019-05-16T13:17:28.828Z,19.02
2019-05-16T13:20:01.991Z,14.95
2019-05-16T13:22:34.863Z,18.67
2019-05-16T13:25:07.848Z,22.20
2019-05-16T13:27:40.738Z,20.40
2019-05-16T13:30:14.058Z,17.87
2019-05-16T13:32:46.957Z,23.12
2019-05-16T13:35:19.981Z,20.12
2019-05-16T13:37:52.784Z,20.60
2019-05-16T13:40:27.603Z,21.87
2019-05-16T13:43:00.046Z,20.68
2019-05-16T13:45:32.868Z,24.18
2019-05-16T13:48:08.101Z,20.88
2019-05-16T13:50:40.192Z,22.80
2019-05-16T13:53:16.242Z,18.52
2019-05-16T13:55:48.536Z,20.75
2019-05-16T13:58:21.564Z,23.12
2019-05-16T14:00:56.996Z,23.00
2019-05-16T14:03:28.938Z,20.70
2019-05-16T14:06:01.887Z,20.08
2019-05-16T14:08:37.066Z,20.62
2019-05-16T14:11:10.848Z,18.67
2019-05-16T14:13:44.012Z,21.73
2019-05-16T14:16:17.965Z,22.45
2019-05-16T14:18:51.186Z,20.55
2019-05-16T14:21:24.106Z,16.95
2019-05-16T14:23:57.000Z,23.83
2019-05-16T14:26:29.876Z,22.02
2019-05-16T14:29:02.818Z,21.50
2019-05-16T14:31:37.570Z,19.85
2019-05-16T14:34:10.284Z,23.70
2019-05-16T14:36:43.087Z,21.15
2019-05-16T14:39:18.919Z,20.95
2019-05-16T14:41:50.240Z,18.55
2019-05-16T14:44:23.074Z,20.82
2019-05-16T14:46:55.988Z,20.30
2019-05-16T14:49:29.148Z,23.07
2019-05-16T14:52:02.096Z,21.82
2019-05-16T14:54:37.545Z,32.45
2019-05-16T14:57:09.395Z,29.18
2019-05-16T14:59:42.098Z,32.23
2019-05-16T15:02:17.826Z,31.60
2019-05-16T15:04:49.780Z,31.40
2019-05-16T15:07:22.808Z,40.23
2019-05-16T15:09:56.618Z,50.83
2019-05-16T15:12:29.519Z,34.88
2019-05-16T15:15:19.156Z,47.88
2019-05-16T15:17:37.160Z,44.45
2019-05-16T15:20:10.364Z,41.65
2019-05-16T15:22:43.167Z,39.00
2019-05-16T15:25:17.451Z,38.60
2019-05-16T15:27:50.540Z,32.40
2019-05-16T15:30:23.494Z,34.35
2019-05-16T15:32:56.981Z,36.80
2019-05-16T15:35:30.421Z,24.20
2019-05-16T15:38:03.686Z,27.02
2019-05-16T15:40:37.687Z,24.02
2019-05-16T15:43:10.829Z,34.03
2019-05-16T15:45:48.186Z,28.20
2019-05-16T15:48:18.168Z,35.03
2019-05-16T15:50:51.058Z,40.45
2019-05-16T15:53:24.094Z,40.28
2019-05-16T15:55:58.240Z,40.60
2019-05-16T16:01:03.165Z,20.60
2019-05-16T16:03:38.207Z,21.23
2019-05-16T16:06:10.628Z,21.82
2019-05-16T16:08:43.546Z,21.85
2019-05-16T16:11:17.120Z,22.25
2019-05-16T16:13:50.374Z,22.67
2019-05-16T16:16:23.352Z,26.68
2019-05-16T16:18:57.435Z,25.40
2019-05-16T16:21:30.540Z,23.62
2019-05-16T16:24:08.119Z,29.05
2019-05-16T16:26:38.424Z,29.95
2019-05-16T16:29:11.367Z,30.57
2019-05-16T16:31:44.280Z,35.35
2019-05-16T16:34:17.679Z,29.72
2019-05-16T16:36:50.768Z,31.33
2019-05-16T16:39:23.926Z,30.72
2019-05-16T16:41:57.214Z,31.00
2019-05-16T16:44:31.693Z,27.20
2019-05-16T16:47:06.726Z,23.50
2019-05-16T16:49:40.558Z,28.32
2019-05-16T16:52:13.984Z,29.23
2019-05-16T16:54:47.880Z,27.00
2019-05-16T16:57:20.893Z,24.03
2019-05-16T16:59:53.738Z,32.50
2019-05-16T17:02:27.895Z,22.00
2019-05-16T17:05:02.462Z,28.07
2019-05-16T17:07:37.229Z,25.00
2019-05-16T17:10:10.364Z,20.95
2019-05-16T17:12:43.218Z,26.80
2019-05-16T17:15:17.726Z,34.05
2019-05-16T17:17:50.765Z,24.40
2019-05-16T17:20:23.775Z,34.03
2019-05-16T17:22:57.224Z,22.93
2019-05-16T17:25:30.260Z,23.87
2019-05-16T17:28:03.662Z,22.37
2019-05-16T17:30:37.066Z,21.95
2019-05-16T17:33:10.321Z,22.58
2019-05-16T17:35:48.298Z,20.95
2019-05-16T17:38:18.877Z,21.00
2019-05-16T17:40:52.056Z,23.70
2019-05-16T17:43:27.256Z,30.07
2019-05-16T17:46:00.510Z,26.87
2019-05-16T17:48:33.650Z,21.33
2019-05-16T17:51:06.686Z,23.67
2019-05-16T17:53:39.772Z,26.20
2019-05-16T17:56:12.791Z,24.97
2019-05-16T17:58:45.991Z,24.85
2019-05-16T18:01:19.118Z,24.02
2019-05-16T18:03:51.967Z,24.47
2019-05-16T18:06:27.033Z,25.90
2019-05-16T18:09:03.677Z,23.00
2019-05-16T18:11:33.927Z,25.12
2019-05-16T18:14:07.124Z,21.80
2019-05-16T18:16:52.429Z,23.30
2019-05-16T18:19:14.648Z,25.15
2019-05-16T18:21:47.828Z,25.65
2019-05-16T18:24:20.912Z,22.50
2019-05-16T18:26:53.988Z,25.60
2019-05-16T18:29:27.420Z,23.57
2019-05-16T18:32:00.512Z,25.77
2019-05-16T18:34:33.978Z,25.20
2019-05-16T18:37:07.223Z,27.37
2019-05-16T18:39:40.516Z,28.87
2019-05-16T18:42:13.632Z,27.65
2019-05-16T18:44:47.318Z,27.87
2019-05-16T18:47:20.706Z,30.92
2019-05-16T18:49:53.965Z,30.68
2019-05-16T18:52:26.915Z,30.10
2019-05-16T18:55:00.132Z,29.63
2019-05-16T18:57:33.028Z,29.30
2019-05-16T19:00:07.030Z,25.15
2019-05-16T19:02:41.442Z,27.82
2019-05-16T19:05:14.282Z,35.80
2019-05-16T19:07:47.684Z,29.75
2019-05-16T19:10:21.019Z,28.10
2019-05-16T19:12:54.116Z,28.67
2019-05-16T19:15:27.212Z,27.60
2019-05-16T19:18:00.190Z,29.60
2019-05-16T19:20:33.858Z,30.72
2019-05-16T19:23:07.529Z,32.67
2019-05-16T19:25:41.464Z,31.95
2019-05-16T19:28:14.564Z,28.42
2019-05-16T19:30:47.602Z,27.07
2019-05-16T19:33:20.464Z,26.10
2019-05-16T19:35:53.496Z,26.23
2019-05-16T19:38:29.210Z,24.72
2019-05-16T19:41:00.966Z,23.25
2019-05-16T19:43:33.851Z,24.27
2019-05-16T19:46:06.928Z,31.40
2019-05-16T19:48:39.810Z,25.08
2019-05-16T19:51:12.748Z,25.90
2019-05-16T19:53:47.080Z,29.15
2019-05-16T19:56:20.216Z,31.80
2019-05-16T19:58:53.000Z,45.48
2019-05-16T20:01:27.436Z,37.30
2019-05-16T20:04:00.204Z,40.33
2019-05-16T20:06:33.279Z,41.53
2019-05-16T20:09:07.505Z,56.05
2019-05-16T20:11:40.491Z,56.40
2019-05-16T20:14:13.454Z,49.77
2019-05-16T20:16:47.159Z,51.13
2019-05-16T20:19:20.253Z,40.38
2019-05-16T20:21:53.358Z,33.85
2019-05-16T20:24:27.246Z,30.87
2019-05-16T20:27:00.230Z,32.83
2019-05-16T20:29:33.232Z,28.75
2019-05-16T20:32:07.758Z,28.85
2019-05-16T20:34:41.176Z,28.95
2019-05-16T20:37:17.180Z,31.40
2019-05-16T20:39:52.276Z,31.23
2019-05-16T20:42:27.764Z,30.60
2019-05-16T20:45:00.660Z,31.07
2019-05-16T20:47:33.420Z,32.78
2019-05-16T20:50:07.690Z,28.32
2019-05-16T20:52:41.065Z,30.55
2019-05-16T20:55:14.186Z,32.43
2019-05-16T20:57:48.504Z,32.38
2019-05-16T21:00:21.604Z,32.17
2019-05-16T21:02:54.342Z,30.97
2019-05-16T21:05:27.228Z,28.98
2019-05-16T21:08:00.080Z,32.75
2019-05-16T21:10:33.062Z,32.20
2019-05-16T21:13:07.151Z,28.17
2019-05-16T21:15:40.534Z,33.13
2019-05-16T21:18:13.381Z,29.65
2019-05-16T21:20:47.023Z,32.55
2019-05-16T21:23:20.280Z,30.12
2019-05-16T21:25:53.286Z,30.08
2019-05-16T21:28:26.365Z,33.08
2019-05-16T21:31:00.844Z,35.00
2019-05-16T21:33:33.632Z,34.83
2019-05-16T21:36:07.256Z,38.65
2019-05-16T21:38:40.378Z,35.40
2019-05-16T21:41:13.208Z,33.83
2019-05-16T21:43:46.995Z,29.75
2019-05-16T21:46:20.223Z,27.85
2019-05-16T21:48:53.464Z,27.20
2019-05-16T21:51:26.829Z,28.20
2019-05-16T21:53:59.942Z,32.93
2019-05-16T21:56:32.912Z,26.10
2019-05-16T21:59:07.000Z,25.27
2019-05-16T22:01:40.563Z,26.02
2019-05-16T22:04:13.558Z,24.92
2019-05-16T22:06:47.464Z,28.42
2019-05-16T22:09:20.650Z,27.13
2019-05-16T22:11:53.636Z,24.05
2019-05-16T22:14:28.054Z,25.10
2019-05-16T22:17:02.226Z,27.73
2019-05-16T22:19:36.219Z,26.02
2019-05-16T22:24:41.463Z,24.30
2019-05-16T22:27:14.331Z,24.23
2019-05-16T22:29:47.292Z,23.83
2019-05-16T22:32:20.090Z,26.17
2019-05-16T22:34:52.946Z,24.40
2019-05-16T22:37:26.566Z,27.00
2019-05-16T22:39:59.866Z,24.67
2019-05-16T22:42:32.716Z,20.60
2019-05-16T22:45:08.912Z,24.67
2019-05-16T22:47:41.576Z,23.92
2019-05-16T22:50:14.434Z,25.20
2019-05-16T22:52:47.211Z,23.47
2019-05-16T22:55:20.208Z,26.95
2019-05-16T22:57:53.078Z,39.15
2019-05-16T23:00:27.382Z,24.02
2019-05-16T23:03:00.299Z,24.75
2019-05-16T23:05:33.076Z,23.62
2019-05-16T23:08:09.576Z,22.80
2019-05-16T23:10:40.394Z,22.27
2019-05-16T23:13:13.224Z,21.37
2019-05-16T23:15:46.127Z,25.02
2019-05-16T23:18:18.940Z,28.45
2019-05-16T23:20:51.776Z,26.90
2019-05-16T23:23:26.421Z,21.17
2019-05-16T23:25:58.933Z,23.45
2019-05-16T23:28:31.764Z,24.72
2019-05-16T23:31:04.512Z,21.87
2019-05-16T23:33:37.352Z,26.45
2019-05-16T23:36:10.125Z,23.42
2019-05-16T23:38:42.980Z,24.18
2019-05-16T23:41:17.230Z,25.88
2019-05-16T23:43:50.392Z,21.00
2019-05-16T23:46:23.356Z,25.05
2019-05-16T23:48:56.577Z,64.55
2019-05-16T23:51:29.596Z,27.22
2019-05-16T23:54:02.514Z,28.07
2019-05-16T23:56:37.226Z,32.30
2019-05-16T23:59:09.710Z,31.12
